ΕΜΥ, Εθνική Μετεωρολογική Υπηρεσία - Δελτία Καιρού, Προγνώσεις

ΑΕΡΟΝΑΥΤΙΛΙΑ

GREEK AIRPORTS CODES

LGML 211000Z 34012KT 9999 FEW040 24/09 Q1016=

EUROPEAN AIRPORTS CODES

LFPO 211000Z VRB03KT 9999 FEW033 BKN260 21/12 Q1023 NOSIG=